»·PEaware :: N41G KRNM-KSNA

N41G :: KRNM-KSNA

FLIGHT INFORMATION

Flight Status: Arrived
Operator: Privately registered:
United States
More flights under this callsign
Pilot: Alec D. (17934)
Aircraft: BEECH AIRCRAFT BONANZA
(BE35)
More flights by this aircraft type
Origin: KRNM Ramona
United States
Destination: KSNA John Wayne-Orange Co
United States
More flights between these airports :: More routes between these airports
Route: ROBNN V208 OCN V23 SLI
File this flight plan on PilotEdge
Remarks:
Altitude:
(Current/Filed)
6,000ft
Speed:
(Current/Filed)
160kts
Departed: 18-Apr-20 05:50 PM
Arrived: 18-Apr-20 06:21 PM
Distance/Time
Traveled:
61nm/0:31
Distance/Time
To Go:
Arrived

Flight Plot

Page will automatically refresh every two minutes.


Map Options




Map Legend


Flown Route
Filed Route
Departure Airport
Arrival Airport
Navaid (VOR, NDB)
Fix

Horizontal Profiles

Position Reports

Time Latitude Longitude Heading Altitude Ground
Speed
18-Apr-20 17:22 33.039578 -116.909640 98 1396ft 0kts
18-Apr-20 17:23 33.039578 -116.909640 98 1396ft 0kts
18-Apr-20 17:24 33.039578 -116.909640 98 1396ft 0kts
18-Apr-20 17:25 33.039578 -116.909640 98 1396ft 0kts
18-Apr-20 17:26 33.039578 -116.909640 98 1396ft 0kts
18-Apr-20 17:27 33.039577 -116.909634 98 1396ft 0kts
18-Apr-20 17:28 33.039576 -116.909626 98 1396ft 0kts
18-Apr-20 17:29 33.039575 -116.909619 98 1396ft 0kts
18-Apr-20 17:30 33.039574 -116.909612 98 1396ft 0kts
18-Apr-20 17:31 33.039573 -116.909605 98 1396ft 0kts
18-Apr-20 17:32 33.039573 -116.909597 98 1396ft 0kts
18-Apr-20 17:33 33.039572 -116.909590 98 1396ft 0kts
18-Apr-20 17:34 33.039571 -116.909583 98 1396ft 0kts
18-Apr-20 17:35 33.039570 -116.909575 98 1396ft 0kts
18-Apr-20 17:36 33.039569 -116.909568 98 1396ft 0kts
18-Apr-20 17:37 33.039568 -116.909561 98 1396ft 0kts
18-Apr-20 17:38 33.039567 -116.909554 98 1396ft 0kts
18-Apr-20 17:39 33.039566 -116.909546 98 1396ft 0kts
18-Apr-20 17:40 33.039564 -116.909530 98 1396ft 0kts
18-Apr-20 17:41 33.039563 -116.909523 98 1396ft 0kts
18-Apr-20 17:42 33.039562 -116.909516 98 1396ft 0kts
18-Apr-20 17:43 33.039561 -116.909509 98 1396ft 0kts
18-Apr-20 17:44 33.039560 -116.909501 98 1396ft 0kts
18-Apr-20 17:45 33.039559 -116.909494 98 1396ft 0kts
18-Apr-20 17:46 33.039479 -116.909285 114 1396ft 3kts
18-Apr-20 17:47 33.038962 -116.907695 160 1396ft 4kts
18-Apr-20 17:48 33.038623 -116.907463 121 1396ft 0kts
18-Apr-20 17:49 33.039216 -116.915692 283 1423ft 79kts
18-Apr-20 17:50 33.043801 -116.945123 281 2420ft 96kts
18-Apr-20 17:51 33.050967 -116.975638 280 3347ft 98kts
18-Apr-20 17:52 33.055526 -117.008692 280 4277ft 101kts
18-Apr-20 17:53 33.060186 -117.041920 280 5180ft 107kts
18-Apr-20 17:54 33.072564 -117.070725 333 5979ft 116kts
18-Apr-20 17:55 33.107852 -117.084436 340 6031ft 140kts
18-Apr-20 17:56 33.148239 -117.092433 349 5984ft 152kts
18-Apr-20 17:57 33.190008 -117.100178 341 6006ft 152kts
18-Apr-20 17:58 33.207972 -117.141190 278 6005ft 150kts
18-Apr-20 17:59 33.213854 -117.190538 279 6013ft 149kts
18-Apr-20 18:00 33.219723 -117.239987 279 6012ft 150kts
18-Apr-20 18:01 33.225543 -117.289250 279 6012ft 149kts
18-Apr-20 18:02 33.231338 -117.338467 279 6005ft 150kts
18-Apr-20 18:03 33.237110 -117.387662 279 6011ft 149kts
18-Apr-20 18:04 33.252576 -117.431626 315 6012ft 149kts
18-Apr-20 18:05 33.282375 -117.466360 315 6017ft 150kts
18-Apr-20 18:06 33.312299 -117.501218 315 6012ft 150kts
18-Apr-20 18:07 33.342201 -117.536091 314 6011ft 150kts
18-Apr-20 18:08 33.372118 -117.571000 314 6009ft 150kts
18-Apr-20 18:09 33.402109 -117.606049 315 6016ft 150kts
18-Apr-20 18:10 33.431988 -117.641004 315 6010ft 150kts
18-Apr-20 18:11 33.462036 -117.676209 315 6002ft 151kts
18-Apr-20 18:12 33.492257 -117.711628 314 6000ft 151kts
18-Apr-20 18:13 33.522283 -117.746899 315 6001ft 150kts
18-Apr-20 18:14 33.552632 -117.782579 315 5712ft 158kts
18-Apr-20 18:15 33.590061 -117.814307 324 4524ft 170kts
18-Apr-20 18:16 33.631299 -117.843516 335 2851ft 175kts
18-Apr-20 18:17 33.676725 -117.837018 31 1533ft 162kts
18-Apr-20 18:18 33.702485 -117.835663 294 1277ft 93kts
18-Apr-20 18:19 33.691467 -117.858748 214 359ft 84kts
18-Apr-20 18:20 33.675509 -117.868879 190 59ft 10kts
18-Apr-20 18:22 33.674752 -117.868717 162 59ft 0kts
18-Apr-20 18:23 33.674535 -117.868615 153 59ft 5kts
18-Apr-20 18:24 33.672796 -117.867037 128 59ft 10kts
18-Apr-20 18:25 33.672539 -117.866622 129 59ft 0kts
18-Apr-20 18:26 33.672539 -117.866622 129 59ft 0kts

Navigation Log

Ident Type
Flight plan parsing failed, navigation log unavailable